createdAt,value
2022-10-02T00:00:21.043Z,7.80
2022-10-02T00:01:23.057Z,7.85
2022-10-02T00:02:21.058Z,7.88
2022-10-02T00:03:21.747Z,7.94
2022-10-02T00:04:21.722Z,8.08
2022-10-02T00:05:22.537Z,8.03
2022-10-02T00:06:21.989Z,8.18
2022-10-02T00:07:20.993Z,8.03
2022-10-02T00:08:24.165Z,7.97
2022-10-02T00:09:21.985Z,7.93
2022-10-02T00:10:21.986Z,7.83
2022-10-02T00:11:23.488Z,7.88
2022-10-02T00:12:21.592Z,7.77
2022-10-02T00:13:21.491Z,7.76
2022-10-02T00:14:21.967Z,7.50
2022-10-02T00:15:21.486Z,7.33
2022-10-02T00:16:20.997Z,7.15
2022-10-02T00:17:23.725Z,7.13
2022-10-02T00:18:22.489Z,7.14
2022-10-02T00:19:21.489Z,7.21
2022-10-02T00:20:21.598Z,7.29
2022-10-02T00:21:22.487Z,7.48
2022-10-02T00:22:20.896Z,7.47
2022-10-02T00:23:22.491Z,7.33
2022-10-02T00:24:21.992Z,7.35
2022-10-02T00:25:22.489Z,7.43
2022-10-02T00:26:21.492Z,7.60
2022-10-02T00:27:21.086Z,7.60
2022-10-02T00:28:21.865Z,7.69
2022-10-02T00:29:20.847Z,7.70
2022-10-02T00:30:20.853Z,7.66
2022-10-02T00:31:20.898Z,7.57
2022-10-02T00:32:21.723Z,7.70
2022-10-02T00:33:23.161Z,7.45
2022-10-02T00:34:21.493Z,7.29
2022-10-02T00:35:20.790Z,7.39
2022-10-02T00:36:21.492Z,7.63
2022-10-02T00:37:21.990Z,7.54
2022-10-02T00:38:21.665Z,7.58
2022-10-02T00:39:21.494Z,7.63
2022-10-02T00:40:22.992Z,7.67
2022-10-02T00:41:21.493Z,7.63
2022-10-02T00:42:23.496Z,7.72
2022-10-02T00:43:21.667Z,7.73
2022-10-02T00:44:20.752Z,7.76
2022-10-02T00:45:20.711Z,7.61
2022-10-02T00:46:20.743Z,7.63
2022-10-02T00:47:20.726Z,7.79
2022-10-02T00:48:23.239Z,7.79
2022-10-02T00:49:21.494Z,7.88
2022-10-02T00:50:22.500Z,7.93
2022-10-02T00:51:22.498Z,7.90
2022-10-02T00:52:20.706Z,7.93
2022-10-02T00:53:20.631Z,7.93
2022-10-02T00:54:20.616Z,7.97
2022-10-02T00:55:20.614Z,7.95
2022-10-02T00:56:20.604Z,8.01
2022-10-02T00:57:20.650Z,7.98
2022-10-02T00:58:20.588Z,7.98
2022-10-02T00:59:20.587Z,8.00
2022-10-02T01:00:20.579Z,8.00
2022-10-02T01:01:21.131Z,8.00
2022-10-02T01:02:20.716Z,8.10
2022-10-02T01:03:20.554Z,8.16
2022-10-02T01:04:20.549Z,8.12
2022-10-02T01:05:20.541Z,8.01
2022-10-02T01:06:20.534Z,7.91
2022-10-02T01:07:20.548Z,7.77
2022-10-02T01:08:20.514Z,7.87
2022-10-02T01:09:20.507Z,7.72
2022-10-02T01:10:20.499Z,7.70
2022-10-02T01:11:20.489Z,7.77
2022-10-02T01:12:20.510Z,7.70
2022-10-02T01:13:20.482Z,7.61
2022-10-02T01:14:20.472Z,7.58
2022-10-02T01:15:20.490Z,7.61
2022-10-02T01:16:20.502Z,7.69
2022-10-02T01:17:20.472Z,7.69
2022-10-02T01:18:20.439Z,7.63
2022-10-02T01:19:20.427Z,7.66
2022-10-02T01:20:20.426Z,7.70
2022-10-02T01:21:20.418Z,7.67
2022-10-02T01:22:20.435Z,7.73
2022-10-02T01:23:20.400Z,7.72
2022-10-02T01:24:20.397Z,7.83
2022-10-02T01:25:20.383Z,7.94
2022-10-02T01:26:20.383Z,8.15
2022-10-02T01:27:20.399Z,8.37
2022-10-02T01:28:20.411Z,8.38
2022-10-02T01:29:20.364Z,8.12
2022-10-02T01:30:20.358Z,7.98
2022-10-02T01:31:20.375Z,7.91
2022-10-02T01:32:20.376Z,7.95
2022-10-02T01:33:20.323Z,7.97
2022-10-02T01:34:20.321Z,7.97
2022-10-02T01:35:20.307Z,8.23
2022-10-02T01:36:20.298Z,8.45
2022-10-02T01:37:20.327Z,8.48
2022-10-02T01:38:20.293Z,8.71
2022-10-02T01:39:20.279Z,8.87
2022-10-02T01:40:20.306Z,8.88
2022-10-02T01:41:20.293Z,8.81
2022-10-02T01:42:20.294Z,8.71
2022-10-02T01:43:20.252Z,8.79
2022-10-02T01:44:20.250Z,8.87
2022-10-02T01:45:20.238Z,8.85
2022-10-02T01:46:20.230Z,8.89
2022-10-02T01:47:20.223Z,8.89
2022-10-02T01:48:20.239Z,8.91
2022-10-02T01:49:20.211Z,8.88
2022-10-02T01:50:20.197Z,8.92
2022-10-02T01:51:20.197Z,9.03
2022-10-02T01:52:20.186Z,8.94
2022-10-02T01:53:20.201Z,8.95
2022-10-02T01:54:20.168Z,8.99
2022-10-02T01:55:20.186Z,8.92
2022-10-02T01:56:20.160Z,9.02
2022-10-02T01:57:20.151Z,8.95
2022-10-02T01:58:20.172Z,8.94
2022-10-02T01:59:20.133Z,8.85
2022-10-02T02:00:20.127Z,8.71
2022-10-02T02:01:20.177Z,8.51
2022-10-02T02:02:20.196Z,8.37
2022-10-02T02:03:20.131Z,8.12
2022-10-02T02:04:20.094Z,8.13
2022-10-02T02:05:20.088Z,8.10
2022-10-02T02:06:20.080Z,8.03
2022-10-02T02:07:20.072Z,8.06
2022-10-02T02:08:20.089Z,8.08
2022-10-02T02:09:20.055Z,8.15
2022-10-02T02:10:20.048Z,8.18
2022-10-02T02:11:20.042Z,8.19
2022-10-02T02:12:20.030Z,8.24
2022-10-02T02:13:20.064Z,8.19
2022-10-02T02:14:20.015Z,8.33
2022-10-02T02:15:20.012Z,8.38
2022-10-02T02:16:20.040Z,8.56
2022-10-02T02:17:19.994Z,8.61
2022-10-02T02:18:20.013Z,8.73
2022-10-02T02:19:19.977Z,8.70
2022-10-02T02:20:19.968Z,8.78
2022-10-02T02:21:22.140Z,8.74
2022-10-02T02:22:20.950Z,8.76
2022-10-02T02:23:19.977Z,8.84
2022-10-02T02:24:19.939Z,8.82
2022-10-02T02:25:19.929Z,8.82
2022-10-02T02:26:19.922Z,8.95
2022-10-02T02:27:19.917Z,8.87
2022-10-02T02:28:19.965Z,8.95
2022-10-02T02:29:19.901Z,8.89
2022-10-02T02:30:19.911Z,8.81
2022-10-02T02:31:19.917Z,8.30
2022-10-02T02:32:19.881Z,8.06
2022-10-02T02:33:19.893Z,7.95
2022-10-02T02:34:19.857Z,7.95
2022-10-02T02:35:19.853Z,7.94
2022-10-02T02:36:19.848Z,7.90
2022-10-02T02:37:19.837Z,7.79
2022-10-02T02:38:19.852Z,7.97
2022-10-02T02:39:19.815Z,7.90
2022-10-02T02:40:19.812Z,7.94
2022-10-02T02:41:19.802Z,8.00
2022-10-02T02:42:22.764Z,8.10
2022-10-02T02:43:20.810Z,8.19
2022-10-02T02:44:19.798Z,8.51
2022-10-02T02:45:19.781Z,8.61
2022-10-02T02:46:19.764Z,8.70
2022-10-02T02:47:19.757Z,8.74
2022-10-02T02:48:19.775Z,8.84
2022-10-02T02:49:19.738Z,8.92
2022-10-02T02:50:19.729Z,8.97
2022-10-02T02:51:19.724Z,8.95
2022-10-02T02:52:19.722Z,9.03
2022-10-02T02:53:19.730Z,8.88
2022-10-02T02:54:19.702Z,8.87
2022-10-02T02:55:19.695Z,8.58
2022-10-02T02:56:19.688Z,8.24
2022-10-02T02:57:19.678Z,8.09
2022-10-02T02:58:19.701Z,8.06
2022-10-02T02:59:19.675Z,7.94
2022-10-02T03:00:19.655Z,7.98
2022-10-02T03:01:19.701Z,7.90
2022-10-02T03:02:19.712Z,8.00
2022-10-02T03:03:19.631Z,8.05
2022-10-02T03:04:19.651Z,7.98
2022-10-02T03:05:19.613Z,8.09
2022-10-02T03:06:19.603Z,8.18
2022-10-02T03:07:19.598Z,8.09
2022-10-02T03:08:20.234Z,8.26
2022-10-02T03:09:21.026Z,8.19
2022-10-02T03:10:23.526Z,8.37
2022-10-02T03:11:21.072Z,8.36
2022-10-02T03:12:20.529Z,8.56
2022-10-02T03:13:22.112Z,8.64
2022-10-02T03:14:21.608Z,8.73
2022-10-02T03:15:21.103Z,8.69
2022-10-02T03:16:20.691Z,8.79
2022-10-02T03:17:21.074Z,8.88
2022-10-02T03:18:21.179Z,8.95
2022-10-02T03:19:22.031Z,9.13
2022-10-02T03:20:21.602Z,8.89
2022-10-02T03:21:21.531Z,8.58
2022-10-02T03:22:20.593Z,8.55
2022-10-02T03:23:20.868Z,8.38
2022-10-02T03:24:21.534Z,8.37
2022-10-02T03:25:21.061Z,8.41
2022-10-02T03:26:21.135Z,8.37
2022-10-02T03:27:22.065Z,8.52
2022-10-02T03:28:43.383Z,8.49
2022-10-02T03:29:22.590Z,8.63
2022-10-02T03:30:20.553Z,8.55
2022-10-02T03:31:20.303Z,8.53
2022-10-02T03:32:20.052Z,8.56
2022-10-02T03:33:20.108Z,8.55
2022-10-02T03:34:21.035Z,8.58
2022-10-02T03:35:20.278Z,8.63
2022-10-02T03:36:20.089Z,8.64
2022-10-02T03:37:20.088Z,8.89
2022-10-02T03:38:21.121Z,8.87
2022-10-02T03:39:25.353Z,8.82
2022-10-02T03:40:23.080Z,8.67
2022-10-02T03:41:21.600Z,8.61
2022-10-02T03:42:22.035Z,8.52
2022-10-02T03:43:22.034Z,8.49
2022-10-02T03:44:20.246Z,8.49
2022-10-02T03:45:46.139Z,8.45
2022-10-02T03:46:23.277Z,8.46
2022-10-02T03:47:22.109Z,8.49
2022-10-02T03:48:20.063Z,8.52
2022-10-02T03:49:22.123Z,8.58
2022-10-02T03:50:21.036Z,8.45
2022-10-02T03:51:20.244Z,8.49
2022-10-02T03:52:21.038Z,8.53
2022-10-02T03:53:21.037Z,8.53
2022-10-02T03:54:19.851Z,8.60
2022-10-02T03:55:21.091Z,8.53
2022-10-02T03:56:51.651Z,8.38
2022-10-02T03:57:19.203Z,8.46
2022-10-02T03:58:19.255Z,8.42
2022-10-02T03:59:19.188Z,8.60
2022-10-02T04:00:19.189Z,8.51
2022-10-02T04:01:19.221Z,8.56
2022-10-02T04:02:19.175Z,8.58
2022-10-02T04:03:19.215Z,8.53
2022-10-02T04:04:19.154Z,8.67
2022-10-02T04:05:19.150Z,8.55
2022-10-02T04:06:19.139Z,8.61
2022-10-02T04:07:19.133Z,8.66
2022-10-02T04:08:19.148Z,8.81
2022-10-02T04:09:19.137Z,8.91
2022-10-02T04:10:19.110Z,8.88
2022-10-02T04:11:19.097Z,8.88
2022-10-02T04:12:19.090Z,8.87
2022-10-02T04:13:19.110Z,8.79
2022-10-02T04:14:19.125Z,8.87
2022-10-02T04:15:19.069Z,8.81
2022-10-02T04:16:19.110Z,8.70
2022-10-02T04:17:19.053Z,8.63
2022-10-02T04:18:19.094Z,8.71
2022-10-02T04:19:19.106Z,8.71
2022-10-02T04:20:19.038Z,8.79
2022-10-02T04:21:19.025Z,8.76
2022-10-02T04:22:19.016Z,8.71
2022-10-02T04:23:19.042Z,8.81
2022-10-02T04:24:19.070Z,8.70
2022-10-02T04:25:18.999Z,8.79
2022-10-02T04:26:18.988Z,8.85
2022-10-02T04:27:18.979Z,8.92
2022-10-02T04:28:18.987Z,9.00
2022-10-02T04:29:18.992Z,8.94
2022-10-02T04:30:18.954Z,9.26
2022-10-02T04:31:18.981Z,9.29
2022-10-02T04:32:18.949Z,9.51
2022-10-02T04:33:18.981Z,9.61
2022-10-02T04:34:18.960Z,9.59
2022-10-02T04:35:18.929Z,9.62
2022-10-02T04:36:18.916Z,9.77
2022-10-02T04:37:18.911Z,9.84
2022-10-02T04:38:18.899Z,9.92
2022-10-02T04:39:18.923Z,9.94
2022-10-02T04:40:18.881Z,9.99
2022-10-02T04:41:18.879Z,10.12
2022-10-02T04:42:18.870Z,10.15
2022-10-02T04:43:18.877Z,10.22
2022-10-02T04:44:18.882Z,10.26
2022-10-02T04:45:18.847Z,10.33
2022-10-02T04:46:18.838Z,10.35
2022-10-02T04:47:18.836Z,10.35
2022-10-02T04:48:18.818Z,10.42
2022-10-02T04:49:18.860Z,10.42
2022-10-02T04:50:18.819Z,10.37
2022-10-02T04:51:18.805Z,10.44
2022-10-02T04:52:18.795Z,10.53
2022-10-02T04:53:18.786Z,10.44
2022-10-02T04:54:18.803Z,10.41
2022-10-02T04:55:18.769Z,10.53
2022-10-02T04:56:18.763Z,10.56
2022-10-02T04:57:18.755Z,10.49
2022-10-02T04:58:18.756Z,10.59
2022-10-02T04:59:18.761Z,10.63
2022-10-02T05:00:18.731Z,10.60
2022-10-02T05:01:18.786Z,10.59
2022-10-02T05:02:18.780Z,10.61
2022-10-02T05:03:18.706Z,10.54
2022-10-02T05:04:18.723Z,10.61
2022-10-02T05:05:18.699Z,10.63
2022-10-02T05:06:18.685Z,10.61
2022-10-02T05:07:18.680Z,10.64
2022-10-02T05:08:18.681Z,10.59
2022-10-02T05:09:18.688Z,10.59
2022-10-02T05:10:18.656Z,10.61
2022-10-02T05:11:18.648Z,10.56
2022-10-02T05:12:18.644Z,10.64
2022-10-02T05:13:18.629Z,10.60
2022-10-02T05:14:18.648Z,10.57
2022-10-02T05:15:18.623Z,10.48
2022-10-02T05:16:18.729Z,10.59
2022-10-02T05:17:18.605Z,10.56
2022-10-02T05:18:18.597Z,10.48
2022-10-02T05:19:18.616Z,10.54
2022-10-02T05:20:18.576Z,10.56
2022-10-02T05:21:18.598Z,10.56
2022-10-02T05:22:18.565Z,10.49
2022-10-02T05:23:18.562Z,10.60
2022-10-02T05:24:18.577Z,10.57
2022-10-02T05:25:18.542Z,10.54
2022-10-02T05:26:18.538Z,10.64
2022-10-02T05:27:18.551Z,10.64
2022-10-02T05:28:18.592Z,10.72
2022-10-02T05:29:18.539Z,10.67
2022-10-02T05:30:18.535Z,10.78
2022-10-02T05:31:18.537Z,10.82
2022-10-02T05:32:18.508Z,10.81
2022-10-02T05:33:18.527Z,10.82
2022-10-02T05:34:18.513Z,10.82
2022-10-02T05:35:18.464Z,10.84
2022-10-02T05:36:18.456Z,10.87
2022-10-02T05:37:18.454Z,10.89
2022-10-02T05:38:18.441Z,10.94
2022-10-02T05:39:18.459Z,10.92
2022-10-02T05:40:18.420Z,11.05
2022-10-02T05:41:18.417Z,10.99
2022-10-02T05:42:18.413Z,11.04
2022-10-02T05:43:18.405Z,11.07
2022-10-02T05:44:18.424Z,11.07
2022-10-02T05:45:18.395Z,11.08
2022-10-02T05:46:18.405Z,11.19
2022-10-02T05:47:18.367Z,11.15
2022-10-02T05:48:18.352Z,11.12
2022-10-02T05:49:18.377Z,11.05
2022-10-02T05:50:18.347Z,11.18
2022-10-02T05:51:18.335Z,11.19
2022-10-02T05:52:18.328Z,11.19
2022-10-02T05:53:18.320Z,11.19
2022-10-02T05:54:18.339Z,11.18
2022-10-02T05:55:18.308Z,11.18
2022-10-02T05:56:18.298Z,11.25
2022-10-02T05:57:18.285Z,11.25
2022-10-02T05:58:18.278Z,11.30
2022-10-02T05:59:18.295Z,11.27
2022-10-02T06:00:18.268Z,11.29
2022-10-02T06:01:18.345Z,11.26
2022-10-02T06:02:18.312Z,11.33
2022-10-02T06:03:18.243Z,11.29
2022-10-02T06:04:18.256Z,11.25
2022-10-02T06:05:18.224Z,11.32
2022-10-02T06:06:18.221Z,11.32
2022-10-02T06:07:18.213Z,11.30
2022-10-02T06:08:18.199Z,11.37
2022-10-02T06:09:20.270Z,11.37
2022-10-02T06:10:19.219Z,11.44
2022-10-02T06:11:18.177Z,11.35
2022-10-02T06:12:18.169Z,11.35
2022-10-02T06:13:18.160Z,11.36
2022-10-02T06:14:18.154Z,11.40
2022-10-02T06:15:18.242Z,11.37
2022-10-02T06:16:18.192Z,11.43
2022-10-02T06:17:18.134Z,11.44
2022-10-02T06:18:18.126Z,11.40
2022-10-02T06:19:18.150Z,11.40
2022-10-02T06:20:18.109Z,11.37
2022-10-02T06:21:18.124Z,11.50
2022-10-02T06:22:18.097Z,11.50
2022-10-02T06:23:18.090Z,11.43
2022-10-02T06:24:18.103Z,11.51
2022-10-02T06:25:18.069Z,11.44
2022-10-02T06:26:18.064Z,11.47
2022-10-02T06:27:18.056Z,11.40
2022-10-02T06:28:18.077Z,11.51
2022-10-02T06:29:19.875Z,11.47
2022-10-02T06:30:19.038Z,11.50
2022-10-02T06:31:18.057Z,11.44
2022-10-02T06:32:18.032Z,11.50
2022-10-02T06:33:18.033Z,11.45
2022-10-02T06:34:18.028Z,11.55
2022-10-02T06:35:18.000Z,11.51
2022-10-02T06:36:17.985Z,11.57
2022-10-02T06:37:17.975Z,11.59
2022-10-02T06:38:17.975Z,11.55
2022-10-02T06:39:17.989Z,11.54
2022-10-02T06:40:17.956Z,11.57
2022-10-02T06:41:17.950Z,11.68
2022-10-02T06:42:17.986Z,11.62
2022-10-02T06:43:17.930Z,11.62
2022-10-02T06:44:17.955Z,11.73
2022-10-02T06:45:17.921Z,11.70
2022-10-02T06:46:17.910Z,11.66
2022-10-02T06:47:17.903Z,11.73
2022-10-02T06:48:17.895Z,11.70
2022-10-02T06:49:17.922Z,11.78
2022-10-02T06:50:17.885Z,11.83
2022-10-02T06:51:17.907Z,11.68
2022-10-02T06:52:17.873Z,11.86
2022-10-02T06:53:17.861Z,11.83
2022-10-02T06:54:17.879Z,11.83
2022-10-02T06:55:17.856Z,11.83
2022-10-02T06:56:17.836Z,11.77
2022-10-02T06:57:17.824Z,11.88
2022-10-02T06:58:17.814Z,11.83
2022-10-02T06:59:17.851Z,11.81
2022-10-02T07:00:17.799Z,11.86
2022-10-02T07:01:17.817Z,11.80
2022-10-02T07:02:17.808Z,11.87
2022-10-02T07:03:17.783Z,11.84
2022-10-02T07:04:17.799Z,11.87
2022-10-02T07:05:18.318Z,11.87
2022-10-02T07:06:17.749Z,11.90
2022-10-02T07:07:17.745Z,12.00
2022-10-02T07:08:17.739Z,12.02
2022-10-02T07:09:17.755Z,12.04
2022-10-02T07:10:17.723Z,11.95
2022-10-02T07:11:17.710Z,12.07
2022-10-02T07:12:17.705Z,12.07
2022-10-02T07:13:17.745Z,12.04
2022-10-02T07:14:17.716Z,12.09
2022-10-02T07:15:17.678Z,12.04
2022-10-02T07:16:17.729Z,12.04
2022-10-02T07:17:22.081Z,12.12
2022-10-02T07:18:18.658Z,12.03
2022-10-02T07:19:17.669Z,12.17
2022-10-02T07:20:17.633Z,12.28
2022-10-02T07:21:17.624Z,12.22
2022-10-02T07:22:42.855Z,12.22
2022-10-02T07:23:19.678Z,12.15
2022-10-02T07:24:17.644Z,12.22
2022-10-02T07:25:17.601Z,12.22
2022-10-02T07:26:17.593Z,12.25
2022-10-02T07:27:17.587Z,12.31
2022-10-02T07:28:17.666Z,12.28
2022-10-02T07:29:17.600Z,12.28
2022-10-02T07:30:17.567Z,12.28
2022-10-02T07:31:17.612Z,12.31
2022-10-02T07:32:17.594Z,12.29
2022-10-02T07:33:17.536Z,12.37
2022-10-02T07:34:17.553Z,12.40
2022-10-02T07:35:17.524Z,12.28
2022-10-02T07:36:17.513Z,12.49
2022-10-02T07:37:17.507Z,12.42
2022-10-02T07:38:17.499Z,12.43
2022-10-02T07:39:17.517Z,12.46
2022-10-02T07:40:17.485Z,12.49
2022-10-02T07:41:17.476Z,12.54
2022-10-02T07:42:17.470Z,12.57
2022-10-02T07:43:17.456Z,12.54
2022-10-02T07:44:17.550Z,12.65
2022-10-02T07:45:17.451Z,12.62
2022-10-02T07:46:17.517Z,12.80
2022-10-02T07:47:17.456Z,12.76
2022-10-02T07:48:17.417Z,12.83
2022-10-02T07:49:17.439Z,12.80
2022-10-02T07:50:17.410Z,12.85
2022-10-02T07:51:20.950Z,12.90
2022-10-02T07:52:18.405Z,13.00
2022-10-02T07:53:17.399Z,12.93
2022-10-02T07:54:17.403Z,13.00
2022-10-02T07:55:17.426Z,13.00
2022-10-02T07:56:17.386Z,12.87
2022-10-02T07:57:17.376Z,12.87
2022-10-02T07:58:17.378Z,12.76
2022-10-02T07:59:17.359Z,12.82
2022-10-02T08:00:17.396Z,12.87
2022-10-02T08:01:17.323Z,12.86
2022-10-02T08:02:17.350Z,12.98
2022-10-02T08:03:17.379Z,12.90
2022-10-02T08:04:17.280Z,12.83
2022-10-02T08:05:18.308Z,12.83
2022-10-02T08:06:17.278Z,12.93
2022-10-02T08:07:17.266Z,12.97
2022-10-02T08:08:17.268Z,13.11
2022-10-02T08:09:17.263Z,13.19
2022-10-02T08:10:17.270Z,13.23
2022-10-02T08:11:17.242Z,13.37
2022-10-02T08:12:17.233Z,13.50
2022-10-02T08:13:17.220Z,13.54
2022-10-02T08:14:17.233Z,13.57
2022-10-02T08:15:17.295Z,13.65
2022-10-02T08:16:17.277Z,13.75
2022-10-02T08:17:17.209Z,13.78
2022-10-02T08:18:33.667Z,13.74
2022-10-02T08:19:19.175Z,13.79
2022-10-02T08:20:17.718Z,13.89
2022-10-02T08:21:17.162Z,13.97
2022-10-02T08:22:17.160Z,13.92
2022-10-02T08:23:17.140Z,13.97
2022-10-02T08:24:17.132Z,14.04
2022-10-02T08:25:17.147Z,14.29
2022-10-02T08:26:17.120Z,14.50
2022-10-02T08:27:17.114Z,14.60
2022-10-02T08:28:17.179Z,14.60
2022-10-02T08:29:17.095Z,14.54
2022-10-02T08:30:17.120Z,14.58
2022-10-02T08:31:17.113Z,14.58
2022-10-02T08:32:17.069Z,14.51
2022-10-02T08:33:17.058Z,14.65
2022-10-02T08:34:17.080Z,14.58
2022-10-02T08:35:17.043Z,14.60
2022-10-02T08:36:17.039Z,14.51
2022-10-02T08:37:17.035Z,14.62
2022-10-02T08:38:17.024Z,14.63
2022-10-02T08:39:17.053Z,14.54
2022-10-02T08:40:16.996Z,14.45
2022-10-02T08:41:17.998Z,14.45
2022-10-02T08:42:16.993Z,14.40
2022-10-02T08:43:16.989Z,14.51
2022-10-02T08:44:17.008Z,14.47
2022-10-02T08:45:16.970Z,14.41
2022-10-02T08:46:16.966Z,14.32
2022-10-02T08:47:16.965Z,14.35
2022-10-02T08:48:16.946Z,14.32
2022-10-02T08:49:16.941Z,14.23
2022-10-02T08:50:16.975Z,14.18
2022-10-02T08:51:16.929Z,14.25
2022-10-02T08:52:16.928Z,14.30
2022-10-02T08:53:16.908Z,14.32
2022-10-02T08:54:16.898Z,14.37
2022-10-02T08:55:16.939Z,14.40
2022-10-02T08:56:20.196Z,14.48
2022-10-02T08:57:17.869Z,14.51
2022-10-02T08:58:16.863Z,14.44
2022-10-02T08:59:16.865Z,14.45
2022-10-02T09:00:16.936Z,14.44
2022-10-02T09:01:16.922Z,14.59
2022-10-02T09:02:16.869Z,14.47
2022-10-02T09:03:16.834Z,14.54
2022-10-02T09:04:17.726Z,14.63
2022-10-02T09:05:16.846Z,14.66
2022-10-02T09:06:16.807Z,14.69
2022-10-02T09:07:16.803Z,14.77
2022-10-02T09:08:16.795Z,14.72
2022-10-02T09:09:16.871Z,14.72
2022-10-02T09:10:16.823Z,14.72
2022-10-02T09:11:16.773Z,14.70
2022-10-02T09:12:17.367Z,14.63
2022-10-02T09:13:16.746Z,14.65
2022-10-02T09:14:16.767Z,14.63
2022-10-02T09:15:16.738Z,14.62
2022-10-02T09:16:16.795Z,14.65
2022-10-02T09:17:16.722Z,14.79
2022-10-02T09:18:16.716Z,14.86
2022-10-02T09:19:16.735Z,14.96
2022-10-02T09:20:16.697Z,14.88
2022-10-02T09:21:16.704Z,14.92
2022-10-02T09:22:16.683Z,15.02
2022-10-02T09:23:16.670Z,14.99
2022-10-02T09:24:16.668Z,15.00
2022-10-02T09:25:16.689Z,15.02
2022-10-02T09:26:16.647Z,14.97
2022-10-02T09:27:16.648Z,15.04
2022-10-02T09:28:16.688Z,15.00
2022-10-02T09:29:16.630Z,14.94
2022-10-02T09:30:16.642Z,14.99
2022-10-02T09:31:16.641Z,15.04
2022-10-02T09:32:16.602Z,15.10
2022-10-02T09:33:16.625Z,14.99
2022-10-02T09:34:17.589Z,15.10
2022-10-02T09:35:16.613Z,15.07
2022-10-02T09:36:16.582Z,15.04
2022-10-02T09:37:16.554Z,15.06
2022-10-02T09:38:17.569Z,15.14
2022-10-02T09:39:16.532Z,15.10
2022-10-02T09:40:17.566Z,15.22
2022-10-02T09:41:16.556Z,15.15
2022-10-02T09:42:16.639Z,15.14
2022-10-02T09:43:16.514Z,15.21
2022-10-02T09:44:16.506Z,15.19
2022-10-02T09:45:16.531Z,15.19
2022-10-02T09:46:16.562Z,15.06
2022-10-02T09:47:16.477Z,15.10
2022-10-02T09:48:16.484Z,15.06
2022-10-02T09:49:16.472Z,15.00
2022-10-02T09:50:16.506Z,15.15
2022-10-02T09:51:16.449Z,15.15
2022-10-02T09:52:16.442Z,15.29
2022-10-02T09:53:16.434Z,15.29
2022-10-02T09:54:16.429Z,15.29
2022-10-02T09:55:16.442Z,15.35
2022-10-02T09:57:48.045Z,15.51
2022-10-02T09:58:48.069Z,15.47
2022-10-02T09:59:48.084Z,15.64
2022-10-02T10:00:48.077Z,15.57
2022-10-02T10:01:49.219Z,15.55
2022-10-02T10:02:49.268Z,15.55
2022-10-02T10:03:49.173Z,15.52
2022-10-02T10:05:05.089Z,15.44
2022-10-02T10:05:51.160Z,15.44
2022-10-02T10:06:49.147Z,15.39
2022-10-02T10:07:49.145Z,15.46
2022-10-02T10:08:49.133Z,15.47
2022-10-02T10:09:49.154Z,15.55
2022-10-02T10:10:49.114Z,15.57
2022-10-02T10:11:49.111Z,15.54
2022-10-02T10:12:49.098Z,15.54
2022-10-02T10:13:49.101Z,15.58
2022-10-02T10:14:49.119Z,15.55
2022-10-02T10:15:49.078Z,15.57
2022-10-02T10:16:49.096Z,15.59
2022-10-02T10:17:49.062Z,15.47
2022-10-02T10:18:49.063Z,15.37
2022-10-02T10:19:49.043Z,15.29
2022-10-02T10:20:49.070Z,15.21
2022-10-02T10:21:49.031Z,15.17
2022-10-02T10:22:49.026Z,15.14
2022-10-02T10:23:49.010Z,15.19
2022-10-02T10:24:49.019Z,15.25
2022-10-02T10:25:49.041Z,15.33
2022-10-02T10:26:48.996Z,15.28
2022-10-02T10:27:49.114Z,15.39
2022-10-02T10:28:48.977Z,15.49
2022-10-02T10:29:48.970Z,15.42
2022-10-02T10:30:48.989Z,15.54
2022-10-02T10:31:49.130Z,15.46
2022-10-02T10:32:48.946Z,15.29
2022-10-02T10:33:48.947Z,15.37
2022-10-02T10:34:48.934Z,15.28
2022-10-02T10:35:48.954Z,15.28
2022-10-02T10:36:48.913Z,15.27
2022-10-02T10:37:48.912Z,15.37
2022-10-02T10:38:48.898Z,15.35
2022-10-02T10:39:48.894Z,15.44
2022-10-02T10:40:48.918Z,15.33
2022-10-02T10:41:48.886Z,15.39
2022-10-02T10:43:06.603Z,15.47
2022-10-02T10:43:50.868Z,15.42
2022-10-02T10:44:48.847Z,15.55
2022-10-02T10:45:48.907Z,15.57
2022-10-02T10:46:48.832Z,15.62
2022-10-02T10:47:48.834Z,15.57
2022-10-02T10:48:49.847Z,15.79
2022-10-02T10:49:49.843Z,15.95
2022-10-02T10:50:48.804Z,15.95
2022-10-02T10:51:48.802Z,16.05
2022-10-02T10:52:48.797Z,16.09
2022-10-02T10:53:48.791Z,16.09
2022-10-02T10:54:48.816Z,16.10
2022-10-02T10:55:48.773Z,16.16
2022-10-02T10:56:48.768Z,16.05
2022-10-02T10:57:48.760Z,16.12
2022-10-02T10:58:48.746Z,16.16
2022-10-02T10:59:48.757Z,16.15
2022-10-02T11:00:48.744Z,16.24
2022-10-02T11:01:48.723Z,16.16
2022-10-02T11:02:48.718Z,16.17
2022-10-02T11:03:48.709Z,15.97
2022-10-02T11:04:48.696Z,16.01
2022-10-02T11:05:48.746Z,16.09
2022-10-02T11:06:48.681Z,16.26
2022-10-02T11:07:48.678Z,16.26
2022-10-02T11:08:48.666Z,16.31
2022-10-02T11:09:48.656Z,16.33
2022-10-02T11:10:48.676Z,16.46
2022-10-02T11:11:48.646Z,16.41
2022-10-02T11:12:48.638Z,16.32
2022-10-02T11:13:48.633Z,16.26
2022-10-02T11:14:48.654Z,16.20
2022-10-02T11:15:48.615Z,16.17
2022-10-02T11:16:48.670Z,16.28
2022-10-02T11:17:48.599Z,16.20
2022-10-02T11:18:48.591Z,16.33
2022-10-02T11:19:48.618Z,16.10
2022-10-02T11:20:48.572Z,16.12
2022-10-02T11:21:48.566Z,16.02
2022-10-02T11:22:48.556Z,16.01
2022-10-02T11:23:48.553Z,16.10
2022-10-02T11:24:48.574Z,16.23
2022-10-02T11:25:48.542Z,16.28
2022-10-02T11:26:48.532Z,16.43
2022-10-02T11:27:48.594Z,16.33
2022-10-02T11:28:48.515Z,16.43
2022-10-02T11:29:48.526Z,16.43
2022-10-02T11:30:48.528Z,16.46
2022-10-02T11:31:48.507Z,16.56
2022-10-02T11:32:48.480Z,16.69
2022-10-02T11:33:48.470Z,16.76
2022-10-02T11:34:48.476Z,16.71
2022-10-02T11:35:48.484Z,16.75
2022-10-02T11:36:48.441Z,16.86
2022-10-02T11:37:48.525Z,16.83
2022-10-02T11:38:48.433Z,16.76
2022-10-02T11:39:48.437Z,16.71
2022-10-02T11:40:48.437Z,16.64
2022-10-02T11:41:48.409Z,16.74
2022-10-02T11:42:48.401Z,16.84
2022-10-02T11:43:48.396Z,16.93
2022-10-02T11:44:48.408Z,16.99
2022-10-02T11:45:49.478Z,17.15
2022-10-02T11:46:48.371Z,17.31
2022-10-02T11:47:48.364Z,17.22
2022-10-02T11:48:48.361Z,17.19
2022-10-02T11:49:48.373Z,17.38
2022-10-02T11:50:48.335Z,17.36
2022-10-02T11:51:48.331Z,17.27
2022-10-02T11:52:48.642Z,17.42
2022-10-02T11:53:49.319Z,17.39
2022-10-02T11:54:48.331Z,17.33
2022-10-02T11:55:48.298Z,17.27
2022-10-02T11:56:48.289Z,17.22
2022-10-02T11:57:48.283Z,17.23
2022-10-02T11:58:48.273Z,17.36
2022-10-02T11:59:48.295Z,17.24
2022-10-02T12:00:48.255Z,17.26
2022-10-02T12:01:48.249Z,17.16
2022-10-02T12:02:48.358Z,17.23
2022-10-02T12:03:48.257Z,17.23
2022-10-02T12:04:48.249Z,17.15
2022-10-02T12:05:48.217Z,17.24
2022-10-02T12:06:48.213Z,17.19
2022-10-02T12:07:48.216Z,17.11
2022-10-02T12:08:48.191Z,17.33
2022-10-02T12:09:48.219Z,17.26
2022-10-02T12:10:48.177Z,17.38
2022-10-02T12:11:48.172Z,17.26
2022-10-02T12:12:48.169Z,17.33
2022-10-02T12:13:48.168Z,17.12
2022-10-02T12:14:48.185Z,16.96
2022-10-02T12:15:48.171Z,16.90
2022-10-02T12:16:48.168Z,16.81
2022-10-02T12:17:48.133Z,16.97
2022-10-02T12:18:48.110Z,17.12
2022-10-02T12:19:49.108Z,17.16
2022-10-02T12:20:48.130Z,17.19
2022-10-02T12:21:48.096Z,17.24
2022-10-02T12:22:48.093Z,17.38
2022-10-02T12:23:48.079Z,17.64
2022-10-02T12:24:51.442Z,17.59
2022-10-02T12:25:50.099Z,17.54
2022-10-02T12:26:48.060Z,17.46
2022-10-02T12:27:48.082Z,17.63
2022-10-02T12:28:48.038Z,17.63
2022-10-02T12:29:48.032Z,17.85
2022-10-02T12:30:48.051Z,17.98
2022-10-02T12:31:48.045Z,17.97
2022-10-02T12:32:48.012Z,17.89
2022-10-02T12:33:50.726Z,17.79
2022-10-02T12:34:47.997Z,17.98
2022-10-02T12:35:48.012Z,17.90
2022-10-02T12:36:47.981Z,18.00
2022-10-02T12:37:47.963Z,17.89
2022-10-02T12:38:48.964Z,17.90
2022-10-02T12:39:47.952Z,18.00
2022-10-02T12:40:47.970Z,18.28
2022-10-02T12:41:47.941Z,18.34
2022-10-02T12:42:47.925Z,18.59
2022-10-02T12:43:47.924Z,18.40
2022-10-02T12:44:47.965Z,18.18
2022-10-02T12:45:47.967Z,18.01
2022-10-02T12:46:47.885Z,17.83
2022-10-02T12:47:48.908Z,17.64
2022-10-02T12:48:47.902Z,17.49
2022-10-02T12:49:48.872Z,17.46
2022-10-02T12:50:47.896Z,17.44
2022-10-02T12:51:47.855Z,17.41
2022-10-02T12:52:47.850Z,17.31
2022-10-02T12:53:47.842Z,17.38
2022-10-02T12:54:47.853Z,17.52
2022-10-02T12:55:47.822Z,17.70
2022-10-02T12:56:47.817Z,17.71
2022-10-02T12:57:47.811Z,17.82
2022-10-02T12:58:47.802Z,17.74
2022-10-02T12:59:47.828Z,17.90
2022-10-02T13:00:47.838Z,17.87
2022-10-02T13:01:47.911Z,17.86
2022-10-02T13:03:00.838Z,17.90